»·PEaware :: N3EC KCRQ-KSNA

N3EC :: KCRQ-KSNA

FLIGHT INFORMATION

Flight Status: Arrived
Operator: Privately registered:
United States
More flights under this callsign
Pilot: Aleksandar D. (29171)
Aircraft: Diamond DA-40
(DA40)
More flights by this aircraft type
Origin: KCRQ McClellan-Palomar
United States
Destination: KSNA John Wayne-Orange Co
United States
More flights between these airports :: More routes between these airports
Route:
File this flight plan on PilotEdge
Remarks:
Altitude:
(Current/Filed)
4,500ft
Speed:
(Current/Filed)
120kts
Departed: 13-Jan-21 05:48 PM
Arrived: 13-Jan-21 06:31 PM
Distance/Time
Traveled:
44nm/0:42
Distance/Time
To Go:
Arrived

Flight Plot

Page will automatically refresh every two minutes.


Map Options




Map Legend


Flown Route
Filed Route
Departure Airport
Arrival Airport
Navaid (VOR, NDB)
Fix

Horizontal Profiles

Position Reports

Time Latitude Longitude Heading Altitude Ground
Speed
13-Jan-21 17:34 33.125667 -117.282603 347 328ft 0kts
13-Jan-21 17:36 33.125667 -117.282603 347 328ft 0kts
13-Jan-21 17:37 33.125667 -117.282603 347 328ft 0kts
13-Jan-21 17:38 33.125667 -117.282603 347 328ft 0kts
13-Jan-21 17:39 33.125667 -117.282603 347 328ft 0kts
13-Jan-21 17:40 33.126043 -117.283043 343 330ft 8kts
13-Jan-21 17:41 33.126632 -117.282978 266 332ft 0kts
13-Jan-21 17:42 33.126632 -117.282978 266 332ft 0kts
13-Jan-21 17:43 33.127047 -117.282407 80 334ft 8kts
13-Jan-21 17:44 33.127414 -117.280211 79 331ft 9kts
13-Jan-21 17:45 33.127843 -117.277517 77 331ft 7kts
13-Jan-21 17:46 33.128375 -117.274247 79 330ft 11kts
13-Jan-21 17:47 33.128666 -117.272876 49 330ft 4kts
13-Jan-21 17:48 33.127747 -117.283944 261 487ft 79kts
13-Jan-21 17:49 33.124413 -117.311032 261 1240ft 85kts
13-Jan-21 17:50 33.134495 -117.335708 307 1991ft 86kts
13-Jan-21 17:51 33.150608 -117.358882 306 2549ft 109kts
13-Jan-21 17:52 33.168861 -117.392420 314 2566ft 120kts
13-Jan-21 17:53 33.195960 -117.418151 331 2282ft 126kts
13-Jan-21 17:53 33.219646 -117.432363 328 2507ft 108kts
13-Jan-21 17:55 33.247931 -117.460584 316 2505ft 118kts
13-Jan-21 17:55 33.267167 -117.484096 315 2501ft 119kts
13-Jan-21 17:57 33.296632 -117.513522 323 2500ft 118kts
13-Jan-21 17:57 33.318241 -117.533791 323 2500ft 118kts
13-Jan-21 17:58 33.342761 -117.559932 308 2499ft 119kts
13-Jan-21 17:59 33.361680 -117.592399 305 2500ft 119kts
13-Jan-21 18:00 33.378443 -117.626521 318 2504ft 118kts
13-Jan-21 18:01 33.407120 -117.617812 28 2520ft 114kts
13-Jan-21 18:02 33.433841 -117.598097 17 2544ft 113kts
13-Jan-21 18:03 33.458560 -117.617103 11 2461ft 119kts
13-Jan-21 18:04 33.484418 -117.623815 268 2172ft 143kts
13-Jan-21 18:05 33.458079 -117.626048 164 2109ft 125kts
13-Jan-21 18:06 33.462388 -117.636544 54 2059ft 112kts
13-Jan-21 18:07 33.443485 -117.630624 244 2084ft 125kts
13-Jan-21 18:08 33.441957 -117.669250 280 2502ft 116kts
13-Jan-21 18:09 33.458170 -117.700526 337 2558ft 113kts
13-Jan-21 18:10 33.454928 -117.727623 158 2531ft 118kts
13-Jan-21 18:11 33.470518 -117.722601 340 2524ft 114kts
13-Jan-21 18:12 33.500265 -117.737522 328 2554ft 123kts
13-Jan-21 18:13 33.525795 -117.765329 329 2522ft 122kts
13-Jan-21 18:14 33.553244 -117.789761 325 2517ft 123kts
13-Jan-21 18:15 33.581227 -117.813947 327 2489ft 125kts
13-Jan-21 18:16 33.609185 -117.836816 329 1914ft 121kts
13-Jan-21 18:17 33.635576 -117.857345 329 1165ft 114kts
13-Jan-21 18:18 33.664341 -117.857085 35 1131ft 108kts
13-Jan-21 18:19 33.687235 -117.837323 7 843ft 86kts
13-Jan-21 18:20 33.689963 -117.856714 220 304ft 66kts
13-Jan-21 18:21 33.675154 -117.867424 211 124ft 69kts
13-Jan-21 18:22 33.659849 -117.866678 107 929ft 75kts
13-Jan-21 18:23 33.678722 -117.847402 34 1048ft 98kts
13-Jan-21 18:24 33.690314 -117.853358 238 443ft 78kts
13-Jan-21 18:25 33.676333 -117.866592 208 73ft 64kts
13-Jan-21 18:26 33.659019 -117.871161 116 735ft 79kts
13-Jan-21 18:27 33.672857 -117.851123 37 1034ft 103kts
13-Jan-21 18:28 33.692943 -117.848594 285 617ft 91kts
13-Jan-21 18:29 33.678864 -117.864984 206 46ft 55kts
13-Jan-21 18:30 33.673782 -117.867318 115 46ft 3kts
13-Jan-21 18:31 33.672170 -117.868099 208 45ft 14kts
13-Jan-21 18:32 33.670595 -117.868114 126 45ft 0kts

Navigation Log

Ident Type
Flight plan parsing failed, navigation log unavailable